createdAt,value
2022-10-02T00:01:37.107Z,10.10
2022-10-02T00:06:46.779Z,10.10
2022-10-02T00:11:53.955Z,10.10
2022-10-02T00:16:58.214Z,10.20
2022-10-02T00:22:25.903Z,10.20
2022-10-02T00:27:52.373Z,10.20
2022-10-02T00:33:03.124Z,10.20
2022-10-02T00:38:15.006Z,10.20
2022-10-02T00:43:35.401Z,10.20
2022-10-02T00:48:42.980Z,10.20
2022-10-02T00:54:07.703Z,10.20
2022-10-02T00:59:22.925Z,10.20
2022-10-02T01:04:33.170Z,10.30
2022-10-02T01:09:35.172Z,10.30
2022-10-02T01:14:41.228Z,10.40
2022-10-02T01:19:43.070Z,10.40
2022-10-02T01:24:55.771Z,10.40
2022-10-02T01:30:03.661Z,10.40
2022-10-02T01:35:06.310Z,10.40
2022-10-02T01:40:19.180Z,10.40
2022-10-02T01:45:30.325Z,10.40
2022-10-02T01:50:44.480Z,10.40
2022-10-02T01:55:52.132Z,10.40
2022-10-02T02:01:15.350Z,10.40
2022-10-02T02:06:48.527Z,10.40
2022-10-02T02:12:10.116Z,10.40
2022-10-02T02:17:20.413Z,10.40
2022-10-02T02:22:29.643Z,10.40
2022-10-02T02:27:38.747Z,10.40
2022-10-02T02:32:46.992Z,10.40
2022-10-02T02:37:53.047Z,10.40
2022-10-02T02:43:22.241Z,10.40
2022-10-02T02:48:31.604Z,10.40
2022-10-02T02:53:38.753Z,10.50
2022-10-02T02:59:08.859Z,10.50
2022-10-02T03:04:13.295Z,10.50
2022-10-02T03:09:19.036Z,10.50
2022-10-02T03:14:53.072Z,10.40
2022-10-02T03:20:08.188Z,10.40
2022-10-02T03:25:31.953Z,10.50
2022-10-02T03:30:36.167Z,10.40
2022-10-02T03:35:38.825Z,10.40
2022-10-02T03:40:40.655Z,10.30
2022-10-02T03:45:57.923Z,10.40
2022-10-02T03:50:59.793Z,10.40
2022-10-02T03:56:08.574Z,10.50
2022-10-02T04:01:20.969Z,10.50
2022-10-02T04:06:33.638Z,10.50
2022-10-02T04:11:41.047Z,10.50
2022-10-02T04:17:01.294Z,10.60
2022-10-02T04:22:16.143Z,10.60
2022-10-02T04:27:32.757Z,10.50
2022-10-02T04:32:36.932Z,10.60
2022-10-02T04:38:04.264Z,10.60
2022-10-02T04:43:17.454Z,10.60
2022-10-02T04:48:31.248Z,10.60
2022-10-02T04:53:47.576Z,10.60
2022-10-02T04:58:52.138Z,10.70
2022-10-02T05:04:27.405Z,10.70
2022-10-02T05:09:48.198Z,10.70
2022-10-02T05:15:10.831Z,10.70
2022-10-02T05:20:32.447Z,10.80
2022-10-02T05:25:52.448Z,10.80
2022-10-02T05:31:05.595Z,10.80
2022-10-02T05:36:16.511Z,11.00
2022-10-02T05:41:27.704Z,11.00
2022-10-02T05:46:52.390Z,11.00
2022-10-02T05:52:13.609Z,11.10
2022-10-02T05:57:21.433Z,11.00
2022-10-02T06:02:53.052Z,11.00
2022-10-02T06:07:58.656Z,11.10
2022-10-02T06:13:08.870Z,11.10
2022-10-02T06:18:23.821Z,11.20
2022-10-02T06:23:31.622Z,11.20
2022-10-02T06:28:38.919Z,11.30
2022-10-02T06:33:42.138Z,11.50
2022-10-02T06:39:02.690Z,11.70
2022-10-02T06:44:20.003Z,11.80
2022-10-02T06:49:48.919Z,12.00
2022-10-02T06:55:14.548Z,12.00
2022-10-02T07:00:21.856Z,12.00
2022-10-02T07:06:08.067Z,12.10
2022-10-02T07:11:20.594Z,12.10
2022-10-02T07:17:05.673Z,12.20
2022-10-02T07:22:44.657Z,12.20
2022-10-02T07:27:54.332Z,12.40
2022-10-02T07:33:12.545Z,12.40
2022-10-02T07:38:43.706Z,12.40
2022-10-02T07:44:02.703Z,12.50
2022-10-02T07:49:59.241Z,12.70
2022-10-02T07:55:20.573Z,12.80
2022-10-02T08:00:25.847Z,13.00
2022-10-02T08:05:37.398Z,12.90
2022-10-02T08:10:44.325Z,13.00
2022-10-02T08:15:52.672Z,13.20
2022-10-02T08:20:56.573Z,13.30
2022-10-02T08:26:05.927Z,13.60
2022-10-02T08:31:12.856Z,13.60
2022-10-02T08:36:40.980Z,13.80
2022-10-02T08:42:08.607Z,13.90
2022-10-02T08:47:49.499Z,13.90
2022-10-02T08:53:26.296Z,13.70
2022-10-02T08:58:47.936Z,13.30
2022-10-02T09:04:47.973Z,14.00
2022-10-02T09:10:09.921Z,14.30
2022-10-02T09:15:46.308Z,14.40
2022-10-02T09:20:57.481Z,14.00
2022-10-02T09:26:37.870Z,13.90
2022-10-02T09:32:09.451Z,14.20
2022-10-02T09:37:37.744Z,14.20
2022-10-02T09:42:51.987Z,13.90
2022-10-02T09:48:21.433Z,13.80
2022-10-02T09:53:51.860Z,14.50
2022-10-02T09:59:45.771Z,14.70
2022-10-02T10:05:06.077Z,15.40
2022-10-02T10:10:28.431Z,15.80
2022-10-02T10:15:41.348Z,15.60
2022-10-02T10:21:18.168Z,15.60
2022-10-02T10:26:56.992Z,15.30
2022-10-02T10:32:27.657Z,15.10
2022-10-02T10:38:30.029Z,14.60
2022-10-02T10:44:18.803Z,14.60
2022-10-02T10:50:04.938Z,14.30
2022-10-02T10:55:15.314Z,14.50
2022-10-02T11:00:45.552Z,14.80
2022-10-02T11:06:16.085Z,15.00
2022-10-02T11:11:34.149Z,14.90
2022-10-02T11:16:50.118Z,15.00
2022-10-02T11:22:04.430Z,15.30
2022-10-02T11:27:27.192Z,15.10
2022-10-02T11:32:45.643Z,15.40
2022-10-02T11:38:18.458Z,15.50
2022-10-02T11:43:53.203Z,15.30
2022-10-02T11:49:20.664Z,15.30
2022-10-02T11:54:59.606Z,15.40
2022-10-02T12:00:19.402Z,15.20
2022-10-02T12:05:44.742Z,14.50
2022-10-02T12:10:59.802Z,13.50
2022-10-02T12:16:29.322Z,12.80
2022-10-02T12:22:10.322Z,13.20
2022-10-02T12:27:23.391Z,14.90
2022-10-02T12:32:56.592Z,15.70
2022-10-02T12:38:02.334Z,15.20
2022-10-02T12:43:43.557Z,15.00
2022-10-02T12:49:01.815Z,14.90
2022-10-02T12:54:26.013Z,15.10
2022-10-02T12:59:28.711Z,15.30
2022-10-02T13:04:47.174Z,15.40
2022-10-02T13:10:10.963Z,15.50
2022-10-02T13:15:38.521Z,15.70
2022-10-02T13:21:03.024Z,15.70
2022-10-02T13:26:26.228Z,15.70
2022-10-02T13:31:56.907Z,15.80
2022-10-02T13:37:23.221Z,15.90
2022-10-02T13:42:46.808Z,15.90
2022-10-02T13:48:20.627Z,15.90
2022-10-02T13:53:50.666Z,15.90
2022-10-02T13:59:02.351Z,15.90
2022-10-02T14:04:05.247Z,15.60
2022-10-02T14:09:29.988Z,15.40
2022-10-02T14:15:00.741Z,14.80
2022-10-02T14:20:33.132Z,14.10
2022-10-02T14:25:57.853Z,13.40
2022-10-02T14:31:38.291Z,12.10
2022-10-02T14:36:56.362Z,12.20
2022-10-02T14:42:14.563Z,12.30
2022-10-02T14:47:21.514Z,12.40
2022-10-02T14:52:45.825Z,12.30
2022-10-02T14:57:57.135Z,12.40
2022-10-02T15:03:27.758Z,12.40
2022-10-02T15:08:56.247Z,12.40
2022-10-02T15:14:16.458Z,12.10
2022-10-02T15:19:49.856Z,12.40
2022-10-02T15:25:19.091Z,12.40
2022-10-02T15:30:24.635Z,12.30
2022-10-02T15:35:55.307Z,12.10
2022-10-02T15:41:13.978Z,11.90
2022-10-02T15:46:22.625Z,11.90
2022-10-02T15:51:31.573Z,12.10
2022-10-02T15:57:08.259Z,12.10
2022-10-02T16:02:35.801Z,12.10
2022-10-02T16:07:50.211Z,12.10
2022-10-02T16:13:24.952Z,12.00
2022-10-02T16:18:41.372Z,11.80
2022-10-02T16:24:05.670Z,11.60
2022-10-02T16:29:31.095Z,11.70
2022-10-02T16:35:01.755Z,11.70
2022-10-02T16:40:44.469Z,11.60
2022-10-02T16:46:17.028Z,11.40
2022-10-02T16:51:39.407Z,11.30
2022-10-02T16:56:59.240Z,11.10
2022-10-02T17:02:26.541Z,11.00
2022-10-02T17:07:53.258Z,10.90
2022-10-02T17:13:19.807Z,10.90
2022-10-02T17:18:28.666Z,10.80
2022-10-02T17:23:50.188Z,10.70
2022-10-02T17:29:11.961Z,10.80
2022-10-02T17:34:23.114Z,10.90
2022-10-02T17:39:53.164Z,10.90
2022-10-02T17:45:12.136Z,11.10
2022-10-02T17:50:41.137Z,10.90
2022-10-02T17:56:31.353Z,10.90
2022-10-02T18:01:45.012Z,10.80
2022-10-02T18:07:17.790Z,10.90
2022-10-02T18:12:45.912Z,10.90
2022-10-02T18:18:17.675Z,10.90
2022-10-02T18:23:30.701Z,10.90
2022-10-02T18:28:49.087Z,10.80
2022-10-02T18:34:27.201Z,10.70
2022-10-02T18:40:06.873Z,10.60
2022-10-02T18:45:42.014Z,10.50
2022-10-02T18:50:53.901Z,10.50
2022-10-02T18:56:08.512Z,10.70
2022-10-02T19:01:30.142Z,10.90
2022-10-02T19:06:55.264Z,10.90
2022-10-02T19:12:01.848Z,10.80
2022-10-02T19:17:22.042Z,10.70
2022-10-02T19:22:38.800Z,10.20
2022-10-02T19:27:48.419Z,10.10
2022-10-02T19:32:53.700Z,10.00
2022-10-02T19:38:13.696Z,10.00
2022-10-02T19:43:27.665Z,10.00
2022-10-02T19:48:32.487Z,10.10
2022-10-02T19:53:45.243Z,10.20
2022-10-02T19:58:58.576Z,10.10
2022-10-02T20:04:03.236Z,10.10
2022-10-02T20:09:41.250Z,10.10
2022-10-02T20:15:18.667Z,9.90
2022-10-02T20:20:25.671Z,9.80
2022-10-02T20:25:36.420Z,9.60
2022-10-02T20:30:44.334Z,9.60
2022-10-02T20:35:55.017Z,9.60
2022-10-02T20:41:01.197Z,9.50
2022-10-02T20:46:28.823Z,9.40
2022-10-02T20:51:45.037Z,9.40
2022-10-02T20:57:06.435Z,9.40
2022-10-02T21:02:34.852Z,9.40
2022-10-02T21:08:04.759Z,9.30
2022-10-02T21:13:44.618Z,9.30
2022-10-02T21:19:03.890Z,9.30
2022-10-02T21:24:24.923Z,9.40
2022-10-02T21:29:54.140Z,9.40
2022-10-02T21:35:16.846Z,9.40
2022-10-02T21:40:56.037Z,9.40
2022-10-02T21:46:23.285Z,9.40
2022-10-02T21:51:49.984Z,9.30
2022-10-02T21:57:02.815Z,9.30
2022-10-02T22:02:30.348Z,9.30
2022-10-02T22:07:53.775Z,9.30
2022-10-02T22:13:32.098Z,9.40
2022-10-02T22:18:52.005Z,9.40
2022-10-02T22:24:21.734Z,9.40
2022-10-02T22:29:51.874Z,9.50
2022-10-02T22:35:07.673Z,9.50
2022-10-02T22:40:16.307Z,9.60
2022-10-02T22:45:27.659Z,9.70
2022-10-02T22:50:35.940Z,9.70
2022-10-02T22:55:47.384Z,9.70
2022-10-02T23:01:04.391Z,9.60
2022-10-02T23:06:44.019Z,9.70
2022-10-02T23:11:57.007Z,9.70
2022-10-02T23:17:06.252Z,9.80
2022-10-02T23:22:26.493Z,9.80
2022-10-02T23:27:54.245Z,9.80
2022-10-02T23:33:19.366Z,9.70
2022-10-02T23:38:24.408Z,9.70
2022-10-02T23:43:31.653Z,9.70
2022-10-02T23:48:34.068Z,9.70
2022-10-02T23:53:54.311Z,9.70
2022-10-02T23:59:24.394Z,9.80
